Uzhhorod, Ukraine
Current Conditions -  °F | °C
As of 10:00 PM on Saturday 25 Oct 2014 (Local Time) from UKLU Reporting Station
Haze Haze  
Wind Chill: 39°   Ceiling: Unl
Heat Index: 39°   Visibility: 1.8mi
Dew Point: 37°   Wind: 2mph
Humidity: 93%   Direction: 80°E
Pressure: 30.3"   Gusts: NA
Location:  48.62°N, 22.3°E
Report Text: UKLU 251900Z 08001MPS 3000 BR SKC 04/03 Q1026 NOSIG
Loading
Personal Weather Stations






























Interactive Weather Map
Tropical Storm Tracking
New forecast layout! Learn more

10-Day Weather Forecast

Advertisements
Track Severe Weather on mobile